Time;durP1;ratioP1;P1;durP2;ratioP2;P2;SDS_P1;SDS_P2;PMS_P1;PMS_P2;Temp;Humidity;BMP_temperature;BMP_pressure;BME280_temperature;BME280_humidity;BME280_pressure;Samples;Min_cycle;Max_cycle;Signal;HPM_P1;HPM_P2
2022/02/26 00:01:31;;;;;;;;;;;4.70;99.90;;;;;;5034612;28;19905;-66
2022/02/26 00:03:57;;;;;;;;;;;4.60;99.90;;;;;;5035149;28;19974;-65
2022/02/26 00:06:22;;;;;;;;;;;4.60;99.90;;;;;;5034975;28;19920;-66
2022/02/26 00:08:48;;;;;;;;;;;4.60;99.90;;;;;;5052372;28;19909;-66
2022/02/26 00:11:13;;;;;;;;;;;4.60;99.90;;;;;;5038200;28;19947;-66
2022/02/26 00:13:39;;;;;;;;;;;4.70;99.90;;;;;;5053726;28;19912;-67
2022/02/26 00:16:04;;;;;;;;;;;4.50;99.90;;;;;;5054493;28;19947;-71
2022/02/26 00:18:30;;;;;;;;;;;4.50;99.90;;;;;;5039989;28;19904;-72
2022/02/26 00:20:55;;;;;;;;;;;4.60;99.90;;;;;;5059022;28;19917;-67
2022/02/26 00:23:21;;;;;;;;;;;4.70;99.90;;;;;;5059116;28;19908;-70
2022/02/26 00:25:47;;;;;;;;;;;4.60;99.90;;;;;;5056547;28;19924;-67
2022/02/26 00:28:12;;;;;;;;;;;4.60;99.90;;;;;;5038819;28;20395;-67
2022/02/26 00:30:38;;;;;;;;;;;4.50;99.90;;;;;;5055711;28;19905;-65
2022/02/26 00:33:04;;;;;;;;;;;4.40;99.90;;;;;;5056593;28;19905;-66
2022/02/26 00:35:30;;;;;;;;;;;4.50;99.90;;;;;;5038861;28;19905;-66
2022/02/26 00:37:56;;;;;;;;;;;4.50;99.90;;;;;;5056963;28;19904;-66
2022/02/26 00:40:22;;;;;;;;;;;4.60;99.90;;;;;;5040408;28;19986;-66
2022/02/26 00:42:48;;;;;;;;;;;4.50;99.90;;;;;;5039060;28;19932;-66
2022/02/26 00:45:13;;;;;;;;;;;4.60;99.90;;;;;;5038429;28;20247;-68
2022/02/26 00:47:39;;;;;;;;;;;4.60;99.90;;;;;;5038486;28;19904;-66
2022/02/26 00:50:05;;;;;;;;;;;4.50;99.90;;;;;;5056137;28;20258;-68
2022/02/26 00:52:32;;;;;;;;;;;4.60;99.90;;;;;;5037759;28;19905;-68
2022/02/26 00:54:58;;;;;;;;;;;4.60;99.90;;;;;;5055341;28;19904;-67
2022/02/26 00:57:24;;;;;;;;;;;4.60;99.90;;;;;;5037370;28;20368;-66
2022/02/26 00:59:50;;;;;;;;;;;4.60;99.90;;;;;;5055144;28;19912;-68
2022/02/26 01:02:17;;;;;;;;;;;4.50;99.90;;;;;;5055980;28;19909;-68
2022/02/26 01:04:43;;;;;;;;;;;4.60;99.90;;;;;;5037287;28;20239;-67
2022/02/26 01:07:09;;;;;;;;;;;4.50;99.90;;;;;;5038482;28;19920;-67
2022/02/26 01:09:34;;;;;;;;;;;4.60;99.90;;;;;;5055200;28;19905;-68
2022/02/26 01:12:01;;;;;;;;;;;4.60;99.90;;;;;;5055883;28;19905;-67
2022/02/26 01:14:26;;;;;;;;;;;4.60;99.90;;;;;;5055327;28;19955;-68
2022/02/26 01:16:52;;;;;;;;;;;4.50;99.90;;;;;;5036644;28;19904;-66
2022/02/26 01:19:17;;;;;;;;;;;4.50;99.90;;;;;;5055056;28;19904;-66
2022/02/26 01:21:46;;;;;;;;;;;4.60;99.90;;;;;;5036082;28;19921;-66
2022/02/26 01:24:13;;;;;;;;;;;4.50;99.90;;;;;;5038387;28;20348;-68
2022/02/26 01:26:38;;;;;;;;;;;4.50;99.90;;;;;;5056027;28;19924;-66
2022/02/26 01:29:04;;;;;;;;;;;4.50;99.90;;;;;;5036410;28;19909;-65
2022/02/26 01:31:30;;;;;;;;;;;4.40;99.90;;;;;;5054426;28;20364;-68
2022/02/26 01:33:55;;;;;;;;;;;4.40;99.90;;;;;;5054344;28;19909;-68
2022/02/26 01:36:21;;;;;;;;;;;4.50;99.90;;;;;;5055022;28;20281;-66
2022/02/26 01:38:46;;;;;;;;;;;4.30;99.90;;;;;;5036899;28;19912;-66
2022/02/26 01:41:12;;;;;;;;;;;4.30;99.90;;;;;;5054904;28;19905;-66
2022/02/26 01:43:38;;;;;;;;;;;4.30;99.90;;;;;;5055129;28;19909;-67
2022/02/26 01:46:05;;;;;;;;;;;4.30;99.90;;;;;;5037955;28;19912;-66
2022/02/26 01:48:32;;;;;;;;;;;4.20;99.90;;;;;;5057649;28;20007;-67
2022/02/26 01:50:58;;;;;;;;;;;4.20;99.90;;;;;;5038671;28;19905;-70
2022/02/26 01:53:23;;;;;;;;;;;4.20;99.90;;;;;;5039620;28;19905;-67
2022/02/26 01:55:49;;;;;;;;;;;4.30;99.90;;;;;;5039067;28;20246;-67
2022/02/26 01:58:15;;;;;;;;;;;4.30;99.90;;;;;;5057443;28;19905;-66
2022/02/26 02:00:41;;;;;;;;;;;4.40;99.90;;;;;;5055915;28;19912;-66
2022/02/26 02:03:06;;;;;;;;;;;4.50;99.90;;;;;;5037756;28;19916;-67
2022/02/26 02:05:32;;;;;;;;;;;4.40;99.90;;;;;;5056220;28;19909;-68
2022/02/26 02:07:58;;;;;;;;;;;4.50;99.90;;;;;;5056967;28;19909;-66
2022/02/26 02:10:23;;;;;;;;;;;4.50;99.90;;;;;;5038795;28;19928;-67
2022/02/26 02:12:49;;;;;;;;;;;4.50;99.90;;;;;;5055769;28;20342;-67
2022/02/26 02:15:15;;;;;;;;;;;4.50;99.90;;;;;;5054911;28;19909;-67
2022/02/26 02:17:43;;;;;;;;;;;4.40;99.90;;;;;;5054414;28;19908;-66
2022/02/26 02:20:09;;;;;;;;;;;4.50;99.90;;;;;;5054599;28;19909;-66
2022/02/26 02:22:35;;;;;;;;;;;4.40;99.90;;;;;;5054520;28;19915;-67
2022/02/26 02:25:02;;;;;;;;;;;4.40;99.90;;;;;;5035948;28;20334;-67
2022/02/26 02:27:27;;;;;;;;;;;4.40;99.90;;;;;;5054500;28;19979;-66
2022/02/26 02:29:53;;;;;;;;;;;4.30;99.90;;;;;;5054669;28;20262;-72
2022/02/26 02:32:19;;;;;;;;;;;4.30;99.90;;;;;;5037321;28;19950;-70
2022/02/26 02:34:44;;;;;;;;;;;4.30;99.90;;;;;;5054811;28;19904;-66
2022/02/26 02:37:11;;;;;;;;;;;4.40;99.90;;;;;;5054660;28;19911;-70
2022/02/26 02:39:38;;;;;;;;;;;4.40;99.90;;;;;;5055956;28;19913;-66
2022/02/26 02:42:04;;;;;;;;;;;4.50;99.90;;;;;;5055641;28;19905;-73
2022/02/26 02:44:30;;;;;;;;;;;4.50;99.90;;;;;;5056102;28;20358;-67
2022/02/26 02:46:55;;;;;;;;;;;4.50;99.90;;;;;;5036754;28;19909;-67
2022/02/26 02:49:21;;;;;;;;;;;4.50;99.90;;;;;;5054345;28;19908;-67
2022/02/26 02:51:46;;;;;;;;;;;4.50;99.90;;;;;;5035334;28;20325;-67
2022/02/26 02:54:12;;;;;;;;;;;4.50;99.90;;;;;;5053438;28;20354;-66
2022/02/26 02:56:37;;;;;;;;;;;4.50;99.90;;;;;;5035553;28;19954;-66
2022/02/26 02:59:03;;;;;;;;;;;4.50;99.90;;;;;;5034843;28;19904;-66
2022/02/26 03:01:28;;;;;;;;;;;4.50;99.90;;;;;;5035383;28;20400;-68
2022/02/26 03:03:54;;;;;;;;;;;4.50;99.90;;;;;;5035041;28;20346;-67
2022/02/26 03:06:23;;;;;;;;;;;4.60;99.90;;;;;;5052978;28;19973;-66
2022/02/26 03:08:48;;;;;;;;;;;4.50;99.90;;;;;;5034797;28;19908;-66
2022/02/26 03:11:15;;;;;;;;;;;4.50;99.90;;;;;;5052749;28;19936;-66
2022/02/26 03:13:41;;;;;;;;;;;4.50;99.90;;;;;;5034816;28;20365;-72
2022/02/26 03:16:08;;;;;;;;;;;4.50;99.90;;;;;;5053149;28;19970;-67
2022/02/26 03:18:33;;;;;;;;;;;4.50;99.90;;;;;;5053385;28;19996;-67
2022/02/26 03:20:59;;;;;;;;;;;4.60;99.90;;;;;;5036105;28;19939;-66
2022/02/26 03:23:24;;;;;;;;;;;4.60;99.90;;;;;;5055776;28;19931;-71
2022/02/26 03:25:50;;;;;;;;;;;4.60;99.90;;;;;;5054759;28;19909;-66
2022/02/26 03:28:15;;;;;;;;;;;4.50;99.90;;;;;;5055697;28;20293;-68
2022/02/26 03:30:41;;;;;;;;;;;4.60;99.90;;;;;;5055314;28;20335;-65
2022/02/26 03:33:07;;;;;;;;;;;4.60;99.90;;;;;;5036078;28;19908;-67
2022/02/26 03:35:33;;;;;;;;;;;4.50;99.90;;;;;;5054034;28;19912;-66
2022/02/26 03:37:58;;;;;;;;;;;4.50;99.90;;;;;;5053076;28;19909;-66
2022/02/26 03:40:26;;;;;;;;;;;4.60;99.90;;;;;;5035499;28;20042;-66
2022/02/26 03:42:52;;;;;;;;;;;4.50;99.90;;;;;;5053351;28;19954;-68
2022/02/26 03:45:17;;;;;;;;;;;4.50;99.90;;;;;;5053074;28;19920;-71
2022/02/26 03:47:43;;;;;;;;;;;4.50;99.90;;;;;;5027339;28;20350;-70
2022/02/26 03:50:09;;;;;;;;;;;4.40;99.90;;;;;;5039881;28;19905;-69
2022/02/26 03:52:35;;;;;;;;;;;4.50;99.90;;;;;;5041650;28;19904;-67
2022/02/26 03:55:02;;;;;;;;;;;4.50;99.90;;;;;;5060634;28;20412;-71
2022/02/26 03:57:32;;;;;;;;;;;4.40;99.90;;;;;;5042791;28;19905;-66
2022/02/26 03:59:58;;;;;;;;;;;4.40;99.90;;;;;;5042672;28;19904;-74
2022/02/26 04:02:24;;;;;;;;;;;4.30;99.90;;;;;;5062555;28;19912;-67
2022/02/26 04:04:51;;;;;;;;;;;4.30;99.90;;;;;;5060952;28;19904;-68
2022/02/26 04:07:18;;;;;;;;;;;4.30;99.90;;;;;;5041296;28;20001;-67
2022/02/26 04:09:45;;;;;;;;;;;4.20;99.90;;;;;;5040706;28;20308;-72
2022/02/26 04:12:11;;;;;;;;;;;4.30;99.90;;;;;;5041085;28;19909;-67
2022/02/26 04:14:37;;;;;;;;;;;4.20;99.90;;;;;;5057853;28;19912;-66
2022/02/26 04:17:03;;;;;;;;;;;4.20;99.90;;;;;;5039798;28;20346;-68
2022/02/26 04:19:29;;;;;;;;;;;4.10;99.90;;;;;;5040869;28;19905;-68
2022/02/26 04:21:55;;;;;;;;;;;4.10;99.90;;;;;;5057770;28;19917;-67
2022/02/26 04:24:21;;;;;;;;;;;4.10;99.90;;;;;;5058839;28;19934;-67
2022/02/26 04:26:47;;;;;;;;;;;4.00;99.90;;;;;;5057651;28;19935;-68
2022/02/26 04:29:14;;;;;;;;;;;4.20;99.90;;;;;;5059118;28;19909;-67
2022/02/26 04:31:40;;;;;;;;;;;4.20;99.90;;;;;;5041095;28;19905;-68
2022/02/26 04:34:06;;;;;;;;;;;4.10;99.90;;;;;;5058142;28;19980;-65
2022/02/26 04:36:32;;;;;;;;;;;4.20;99.90;;;;;;5040879;28;19905;-68
2022/02/26 04:38:59;;;;;;;;;;;4.10;99.90;;;;;;5058034;28;20265;-68
2022/02/26 04:41:25;;;;;;;;;;;4.00;99.90;;;;;;5040394;28;19911;-67
2022/02/26 04:43:51;;;;;;;;;;;4.10;99.90;;;;;;5057025;28;19909;-66
2022/02/26 04:46:17;;;;;;;;;;;4.00;99.90;;;;;;5058630;28;19916;-73
2022/02/26 04:48:42;;;;;;;;;;;4.00;99.90;;;;;;5041296;28;19916;-69
2022/02/26 04:51:09;;;;;;;;;;;4.00;99.90;;;;;;5058357;28;19958;-66
2022/02/26 04:53:36;;;;;;;;;;;3.90;99.90;;;;;;5060309;28;19905;-67
2022/02/26 04:56:03;;;;;;;;;;;4.00;99.90;;;;;;5060437;28;19911;-69
2022/02/26 04:58:30;;;;;;;;;;;3.90;99.90;;;;;;5043377;28;20241;-68
2022/02/26 05:00:56;;;;;;;;;;;3.70;99.90;;;;;;5041069;28;19967;-68
2022/02/26 05:03:21;;;;;;;;;;;3.80;99.90;;;;;;5041245;28;20377;-74
2022/02/26 05:05:48;;;;;;;;;;;3.80;99.90;;;;;;5041904;28;20386;-73
2022/02/26 05:08:13;;;;;;;;;;;3.80;99.90;;;;;;5059994;28;19908;-68
2022/02/26 05:10:40;;;;;;;;;;;3.80;99.90;;;;;;5041575;28;19988;-67
2022/02/26 05:13:06;;;;;;;;;;;3.70;99.90;;;;;;5058587;28;19908;-66
2022/02/26 05:15:32;;;;;;;;;;;3.80;99.90;;;;;;5058588;28;19916;-69
2022/02/26 05:17:58;;;;;;;;;;;3.70;99.90;;;;;;5058505;28;19911;-70
2022/02/26 05:20:24;;;;;;;;;;;3.80;99.90;;;;;;5041697;28;19917;-68
2022/02/26 05:22:49;;;;;;;;;;;3.70;99.90;;;;;;5040789;28;19931;-69
2022/02/26 05:25:15;;;;;;;;;;;3.70;99.90;;;;;;5059171;28;19905;-67
2022/02/26 05:27:42;;;;;;;;;;;3.50;99.90;;;;;;5058337;28;19944;-70
2022/02/26 05:30:11;;;;;;;;;;;3.50;99.90;;;;;;5058023;28;19915;-67
2022/02/26 05:32:37;;;;;;;;;;;3.50;99.90;;;;;;5058785;28;19905;-68
2022/02/26 05:35:03;;;;;;;;;;;3.40;99.90;;;;;;5040113;28;19904;-70
2022/02/26 05:37:30;;;;;;;;;;;3.40;99.90;;;;;;5039927;28;19905;-68
2022/02/26 05:39:59;;;;;;;;;;;3.40;99.90;;;;;;5039059;28;19905;-66
2022/02/26 05:42:27;;;;;;;;;;;3.40;99.90;;;;;;5039970;28;19909;-67
2022/02/26 05:44:52;;;;;;;;;;;3.30;99.90;;;;;;5058494;28;20004;-70
2022/02/26 05:47:18;;;;;;;;;;;3.30;99.90;;;;;;5058364;28;19909;-67
2022/02/26 05:49:45;;;;;;;;;;;3.40;99.90;;;;;;5040394;28;20392;-66
2022/02/26 05:52:10;;;;;;;;;;;3.40;99.90;;;;;;5039413;28;20023;-70
2022/02/26 05:54:46;;;;;;;;;;;3.40;99.90;;;;;;5039812;28;19947;-67
2022/02/26 05:57:17;;;;;;;;;;;3.30;99.90;;;;;;5058681;28;19927;-71
2022/02/26 05:59:43;;;;;;;;;;;3.30;99.90;;;;;;5040495;28;19905;-67
2022/02/26 06:02:09;;;;;;;;;;;3.20;99.90;;;;;;5039913;28;19905;-67
2022/02/26 06:04:34;;;;;;;;;;;3.20;99.90;;;;;;5057539;28;19959;-68
2022/02/26 06:07:02;;;;;;;;;;;3.20;99.90;;;;;;5037472;28;19915;-68
2022/02/26 06:09:27;;;;;;;;;;;3.20;99.90;;;;;;5038671;28;19960;-70
2022/02/26 06:11:54;;;;;;;;;;;3.10;99.90;;;;;;5038497;28;19909;-70
2022/02/26 06:14:21;;;;;;;;;;;3.20;99.90;;;;;;5038532;28;19915;-66
2022/02/26 06:16:49;;;;;;;;;;;3.20;99.90;;;;;;5038490;28;19905;-67
2022/02/26 06:19:16;;;;;;;;;;;3.20;99.90;;;;;;5055176;28;19904;-66
2022/02/26 06:21:42;;;;;;;;;;;3.30;99.90;;;;;;5056176;28;19962;-66
2022/02/26 06:24:08;;;;;;;;;;;3.30;99.90;;;;;;5055413;28;20369;-69
2022/02/26 06:26:41;;;;;;;;;;;3.30;99.90;;;;;;5038299;28;20372;-68
2022/02/26 06:29:07;;;;;;;;;;;3.20;99.90;;;;;;5039826;28;19916;-68
2022/02/26 06:31:32;;;;;;;;;;;3.30;99.90;;;;;;5037967;28;19912;-66
2022/02/26 06:33:59;;;;;;;;;;;3.30;99.90;;;;;;5055663;28;19904;-67
2022/02/26 06:36:24;;;;;;;;;;;3.30;99.90;;;;;;5037839;28;19912;-67
2022/02/26 06:38:50;;;;;;;;;;;3.30;99.90;;;;;;5037426;28;20353;-66
2022/02/26 06:41:16;;;;;;;;;;;3.30;99.90;;;;;;5036776;28;19932;-67
2022/02/26 06:43:42;;;;;;;;;;;3.40;99.90;;;;;;5037509;28;19913;-67
2022/02/26 06:46:08;;;;;;;;;;;3.40;99.90;;;;;;5053950;28;19964;-68
2022/02/26 06:48:45;;;;;;;;;;;3.40;99.90;;;;;;5053911;28;20413;-67
2022/02/26 06:51:13;;;;;;;;;;;3.50;99.90;;;;;;5054173;28;19939;-66
2022/02/26 06:53:41;;;;;;;;;;;3.50;99.90;;;;;;5055587;28;19955;-68
2022/02/26 06:56:12;;;;;;;;;;;3.60;99.90;;;;;;5055192;28;19912;-67
2022/02/26 06:58:39;;;;;;;;;;;3.70;99.90;;;;;;5055031;28;19966;-66
2022/02/26 07:01:08;;;;;;;;;;;3.90;99.90;;;;;;5036844;28;20376;-66
2022/02/26 07:03:34;;;;;;;;;;;4.00;99.90;;;;;;5054167;28;19995;-66
2022/02/26 07:06:01;;;;;;;;;;;4.30;99.90;;;;;;5035159;28;20003;-67
2022/02/26 07:08:32;;;;;;;;;;;4.60;99.90;;;;;;5053903;28;19935;-65
2022/02/26 07:11:02;;;;;;;;;;;4.70;99.90;;;;;;5053213;28;19905;-67
2022/02/26 07:13:43;;;;;;;;;;;5.10;99.90;;;;;;5036096;28;20290;-66
2022/02/26 07:16:10;;;;;;;;;;;5.40;99.90;;;;;;5054111;28;19919;-66
2022/02/26 07:18:35;;;;;;;;;;;5.70;99.90;;;;;;5055386;28;19955;-65
2022/02/26 07:21:06;;;;;;;;;;;6.10;99.90;;;;;;5036504;28;20338;-65
2022/02/26 07:23:36;;;;;;;;;;;6.30;99.90;;;;;;5038065;28;19979;-65
2022/02/26 07:26:05;;;;;;;;;;;6.40;99.90;;;;;;5040787;28;19920;-70
2022/02/26 07:28:33;;;;;;;;;;;6.50;99.90;;;;;;5026165;28;20384;-68
2022/02/26 07:31:03;;;;;;;;;;;6.90;99.90;;;;;;5028886;28;19905;-67
2022/02/26 07:33:31;;;;;;;;;;;7.10;99.90;;;;;;5039592;28;19909;-67
2022/02/26 07:36:14;;;;;;;;;;;6.80;99.90;;;;;;5038952;28;20003;-68
2022/02/26 07:38:40;;;;;;;;;;;6.70;99.90;;;;;;5020812;28;19905;-67
2022/02/26 07:41:08;;;;;;;;;;;6.90;99.90;;;;;;5043014;28;20007;-66
2022/02/26 07:43:35;;;;;;;;;;;7.30;99.90;;;;;;5038801;28;19905;-66
2022/02/26 07:46:04;;;;;;;;;;;7.80;99.90;;;;;;5054383;28;19909;-65
2022/02/26 07:48:30;;;;;;;;;;;7.80;99.90;;;;;;5051243;28;19951;-63
2022/02/26 07:50:56;;;;;;;;;;;7.20;99.90;;;;;;5031333;28;19904;-66
2022/02/26 07:53:23;;;;;;;;;;;7.40;99.90;;;;;;5038593;28;19909;-65
2022/02/26 07:55:49;;;;;;;;;;;7.40;99.90;;;;;;5055762;28;20444;-71
2022/02/26 07:58:15;;;;;;;;;;;8.00;99.90;;;;;;5036843;28;19912;-66
2022/02/26 08:00:40;;;;;;;;;;;8.60;99.90;;;;;;5031621;28;20373;-65
2022/02/26 08:03:06;;;;;;;;;;;8.20;99.90;;;;;;5035361;28;19905;-65
2022/02/26 08:05:31;;;;;;;;;;;8.70;99.90;;;;;;5032782;28;19905;-65
2022/02/26 08:07:58;;;;;;;;;;;9.10;99.90;;;;;;5028511;28;20242;-66
2022/02/26 08:10:25;;;;;;;;;;;9.00;99.90;;;;;;5021859;28;20011;-67
2022/02/26 08:12:52;;;;;;;;;;;8.90;99.90;;;;;;5049381;28;19904;-65
2022/02/26 08:15:18;;;;;;;;;;;8.20;99.90;;;;;;5031389;28;19921;-65
2022/02/26 08:17:44;;;;;;;;;;;8.20;99.90;;;;;;5046359;28;19947;-67
2022/02/26 08:20:11;;;;;;;;;;;8.60;99.90;;;;;;5037468;28;19908;-65
2022/02/26 08:22:40;;;;;;;;;;;8.80;99.90;;;;;;5044095;28;20063;-65
2022/02/26 08:25:06;;;;;;;;;;;8.10;99.90;;;;;;5046525;28;19904;-67
2022/02/26 08:27:31;;;;;;;;;;;8.40;99.90;;;;;;5038538;28;19905;-66
2022/02/26 08:29:57;;;;;;;;;;;9.40;99.90;;;;;;5038895;28;19931;-66
2022/02/26 08:32:23;;;;;;;;;;;10.10;99.90;;;;;;5055655;28;19901;-67
2022/02/26 08:34:48;;;;;;;;;;;10.00;99.90;;;;;;5038571;28;20338;-66
2022/02/26 08:37:14;;;;;;;;;;;10.80;99.50;;;;;;5037846;28;19905;-66
2022/02/26 08:39:40;;;;;;;;;;;11.30;98.40;;;;;;5040309;28;19912;-67
2022/02/26 08:42:06;;;;;;;;;;;10.90;97.40;;;;;;5036109;28;20273;-66
2022/02/26 08:44:31;;;;;;;;;;;11.20;97.00;;;;;;5025600;28;19952;-66
2022/02/26 08:46:58;;;;;;;;;;;11.00;97.10;;;;;;5052670;28;19964;-66
2022/02/26 08:49:24;;;;;;;;;;;11.80;97.30;;;;;;5037273;28;19915;-66
2022/02/26 08:51:50;;;;;;;;;;;12.10;96.10;;;;;;5023191;28;19999;-67
2022/02/26 08:54:16;;;;;;;;;;;12.50;94.90;;;;;;5020604;28;20346;-70
2022/02/26 08:56:42;;;;;;;;;;;13.00;94.50;;;;;;5039581;28;19947;-71
2022/02/26 08:59:07;;;;;;;;;;;13.60;94.20;;;;;;5030296;28;19909;-68
2022/02/26 09:01:33;;;;;;;;;;;13.00;93.90;;;;;;5034938;28;19954;-66
2022/02/26 09:03:58;;;;;;;;;;;13.20;93.50;;;;;;5048737;28;19943;-70
2022/02/26 09:06:24;;;;;;;;;;;13.00;94.10;;;;;;5032858;28;20247;-69
2022/02/26 09:08:50;;;;;;;;;;;13.30;93.80;;;;;;5050448;28;20015;-66
2022/02/26 09:11:16;;;;;;;;;;;;;;;;;;5038315;28;19905;-66
2022/02/26 09:13:42;;;;;;;;;;;14.10;92.00;;;;;;5045724;28;20008;-66
2022/02/26 09:16:09;;;;;;;;;;;14.00;92.10;;;;;;5048813;28;19921;-68
2022/02/26 09:18:34;;;;;;;;;;;14.00;91.90;;;;;;5035625;28;20000;-67
2022/02/26 09:21:00;;;;;;;;;;;13.20;92.50;;;;;;5035311;28;19956;-66
2022/02/26 09:23:28;;;;;;;;;;;13.30;92.30;;;;;;5034778;28;19912;-67
2022/02/26 09:25:53;;;;;;;;;;;13.90;91.60;;;;;;5036997;28;19913;-67
2022/02/26 09:28:19;;;;;;;;;;;13.70;91.20;;;;;;5032582;28;19909;-69
2022/02/26 09:30:44;;;;;;;;;;;13.90;91.50;;;;;;5035407;28;19931;-69
2022/02/26 09:33:10;;;;;;;;;;;13.60;91.20;;;;;;5016869;28;19909;-67
2022/02/26 09:35:36;;;;;;;;;;;13.30;91.20;;;;;;5023027;28;20377;-72
2022/02/26 09:38:01;;;;;;;;;;;13.50;98.30;;;;;;5041633;28;19909;-71
2022/02/26 09:40:28;;;;;;;;;;;13.40;98.40;;;;;;5050811;28;19914;-74
2022/02/26 09:42:54;;;;;;;;;;;13.80;96.70;;;;;;5037946;28;19964;-69
2022/02/26 09:45:20;;;;;;;;;;;13.90;94.90;;;;;;5037113;28;19916;-69
2022/02/26 09:47:46;;;;;;;;;;;13.60;98.00;;;;;;5043719;28;19909;-69
2022/02/26 09:50:11;;;;;;;;;;;13.60;96.40;;;;;;5016587;28;19924;-67
2022/02/26 09:52:38;;;;;;;;;;;13.50;96.80;;;;;;5017955;28;19916;-70
2022/02/26 09:55:04;;;;;;;;;;;13.40;98.00;;;;;;5023970;28;20295;-67
2022/02/26 09:57:29;;;;;;;;;;;13.20;92.20;;;;;;5036825;28;19911;-67
2022/02/26 09:59:55;;;;;;;;;;;13.10;91.90;;;;;;5023162;28;19992;-71
2022/02/26 10:02:28;;;;;;;;;;;12.70;92.30;;;;;;5044130;28;19935;-68
2022/02/26 10:04:54;;;;;;;;;;;12.10;93.50;;;;;;5028557;28;19913;-68
2022/02/26 10:07:22;;;;;;;;;;;12.30;94.60;;;;;;5034888;28;20368;-68
2022/02/26 10:09:48;;;;;;;;;;;12.30;95.20;;;;;;5034944;28;19922;-68
2022/02/26 10:12:17;;;;;;;;;;;12.20;94.70;;;;;;5025067;28;20269;-67
2022/02/26 10:14:42;;;;;;;;;;;12.00;94.00;;;;;;5036734;28;19908;-66
2022/02/26 10:17:08;;;;;;;;;;;11.60;94.30;;;;;;5050383;28;19916;-68
2022/02/26 10:19:34;;;;;;;;;;;11.70;94.70;;;;;;5032032;28;20287;-66
2022/02/26 10:22:07;;;;;;;;;;;11.40;95.90;;;;;;5035028;28;20055;-66
2022/02/26 10:24:33;;;;;;;;;;;11.60;96.60;;;;;;5020956;28;19944;-66
2022/02/26 10:27:05;;;;;;;;;;;11.60;97.10;;;;;;5037639;28;19916;-68
2022/02/26 10:29:31;;;;;;;;;;;11.40;95.90;;;;;;5028931;28;20278;-67
2022/02/26 10:31:58;;;;;;;;;;;11.10;96.80;;;;;;5048746;28;20046;-66
2022/02/26 10:34:27;;;;;;;;;;;10.90;94.90;;;;;;5035075;28;19952;-68
2022/02/26 10:36:57;;;;;;;;;;;10.60;94.50;;;;;;5053965;28;19916;-67
2022/02/26 10:39:27;;;;;;;;;;;10.80;95.10;;;;;;5053413;28;19966;-69
2022/02/26 10:41:52;;;;;;;;;;;10.90;95.20;;;;;;5053546;28;19908;-66
2022/02/26 10:44:21;;;;;;;;;;;11.10;95.10;;;;;;5053503;28;19909;-67
2022/02/26 10:46:47;;;;;;;;;;;11.30;94.60;;;;;;5035798;28;19998;-67
2022/02/26 10:49:14;;;;;;;;;;;11.10;94.10;;;;;;5053478;28;19950;-66
2022/02/26 10:51:41;;;;;;;;;;;11.30;94.00;;;;;;5035926;28;19991;-67
2022/02/26 10:54:09;;;;;;;;;;;11.90;93.30;;;;;;5035801;28;19912;-65
2022/02/26 10:56:37;;;;;;;;;;;12.50;92.20;;;;;;5053216;28;19905;-68
2022/02/26 10:59:04;;;;;;;;;;;12.90;91.30;;;;;;5035616;28;19905;-68
2022/02/26 11:01:30;;;;;;;;;;;13.20;89.70;;;;;;5053195;28;19956;-67
2022/02/26 11:03:56;;;;;;;;;;;13.30;87.40;;;;;;5035530;28;19912;-67
2022/02/26 11:06:22;;;;;;;;;;;12.80;87.80;;;;;;5052664;28;20380;-66
2022/02/26 11:08:49;;;;;;;;;;;13.00;88.70;;;;;;5035955;28;19966;-66
2022/02/26 11:11:14;;;;;;;;;;;13.80;86.20;;;;;;5053170;28;19904;-67
2022/02/26 11:13:42;;;;;;;;;;;13.80;85.60;;;;;;5054267;28;20007;-68
2022/02/26 11:16:09;;;;;;;;;;;14.40;83.30;;;;;;5054159;28;19912;-66
2022/02/26 11:18:40;;;;;;;;;;;14.40;82.60;;;;;;5035713;28;20248;-66
2022/02/26 11:21:06;;;;;;;;;;;14.70;80.40;;;;;;5035298;28;19924;-67
2022/02/26 11:23:32;;;;;;;;;;;15.10;79.80;;;;;;5035190;28;19904;-69
2022/02/26 11:25:58;;;;;;;;;;;15.40;76.30;;;;;;5035464;28;20259;-68
2022/02/26 11:28:24;;;;;;;;;;;15.60;77.10;;;;;;5052714;28;19915;-67
2022/02/26 11:30:55;;;;;;;;;;;15.90;75.80;;;;;;5053661;28;19905;-67
2022/02/26 11:33:21;;;;;;;;;;;15.90;75.50;;;;;;5034804;28;19912;-67
2022/02/26 11:35:54;;;;;;;;;;;16.20;73.90;;;;;;5035426;28;19912;-68
2022/02/26 11:38:22;;;;;;;;;;;16.30;73.10;;;;;;5034677;28;19912;-68
2022/02/26 11:41:10;;;;;;;;;;;16.00;74.20;;;;;;5053420;28;19999;-69
2022/02/26 11:43:37;;;;;;;;;;;16.10;73.80;;;;;;5034862;28;19932;-68
2022/02/26 11:46:23;;;;;;;;;;;16.00;75.00;;;;;;5052730;28;19963;-68
2022/02/26 11:48:49;;;;;;;;;;;16.10;73.70;;;;;;5035136;28;19962;-69
2022/02/26 11:51:15;;;;;;;;;;;16.40;73.40;;;;;;5034537;28;19904;-69
2022/02/26 11:53:41;;;;;;;;;;;16.40;73.10;;;;;;5035324;28;19905;-68
2022/02/26 11:56:08;;;;;;;;;;;16.60;72.50;;;;;;5052917;28;20370;-68
2022/02/26 11:58:37;;;;;;;;;;;16.50;71.70;;;;;;5034611;28;19911;-67
2022/02/26 12:01:11;;;;;;;;;;;16.70;70.30;;;;;;5052782;28;20365;-68
2022/02/26 12:03:44;;;;;;;;;;;17.20;70.20;;;;;;5053082;28;19950;-69
2022/02/26 12:06:09;;;;;;;;;;;17.50;68.40;;;;;;5034974;28;20365;-68
2022/02/26 12:08:53;;;;;;;;;;;18.00;68.60;;;;;;5034972;28;19909;-68
2022/02/26 12:11:28;;;;;;;;;;;18.10;67.30;;;;;;5034954;28;19904;-68
2022/02/26 12:13:55;;;;;;;;;;;18.70;66.60;;;;;;5055883;28;19976;-69
2022/02/26 12:16:20;;;;;;;;;;;18.60;65.40;;;;;;5057228;28;20384;-73
2022/02/26 12:18:46;;;;;;;;;;;18.70;64.70;;;;;;5040809;28;19905;-75
2022/02/26 12:21:14;;;;;;;;;;;18.30;63.60;;;;;;5039327;28;19923;-68
2022/02/26 12:24:01;;;;;;;;;;;17.50;65.00;;;;;;5057341;28;19908;-68
2022/02/26 12:26:48;;;;;;;;;;;17.40;65.50;;;;;;5038303;28;19952;-68
2022/02/26 12:29:27;;;;;;;;;;;17.30;66.00;;;;;;5036953;28;19915;-68
2022/02/26 12:31:55;;;;;;;;;;;17.10;66.10;;;;;;5056389;28;19912;-72
2022/02/26 12:34:21;;;;;;;;;;;17.20;66.90;;;;;;5056531;28;19905;-69
2022/02/26 12:37:08;;;;;;;;;;;17.70;65.10;;;;;;5056834;28;19959;-68
2022/02/26 12:39:38;;;;;;;;;;;18.30;65.00;;;;;;5039343;28;19905;-71
2022/02/26 12:42:04;;;;;;;;;;;17.60;64.30;;;;;;5039777;28;20020;-69
2022/02/26 12:44:30;;;;;;;;;;;18.20;65.00;;;;;;5056790;28;20388;-69
2022/02/26 12:46:56;;;;;;;;;;;17.80;64.50;;;;;;5039499;28;19909;-66
2022/02/26 12:49:22;;;;;;;;;;;18.30;63.80;;;;;;5056365;28;19930;-70
2022/02/26 12:51:48;;;;;;;;;;;18.00;64.30;;;;;;5039693;28;19955;-70
2022/02/26 12:54:14;;;;;;;;;;;17.90;62.70;;;;;;5058540;28;19912;-71
2022/02/26 12:56:39;;;;;;;;;;;17.00;64.20;;;;;;5057416;28;19916;-67
2022/02/26 12:59:12;;;;;;;;;;;17.30;64.70;;;;;;5039034;28;19904;-69
2022/02/26 13:01:41;;;;;;;;;;;17.70;64.60;;;;;;5056496;28;19914;-68
2022/02/26 13:04:10;;;;;;;;;;;17.60;64.50;;;;;;5039014;28;19909;-68
2022/02/26 13:06:36;;;;;;;;;;;17.20;64.00;;;;;;5038596;28;20314;-69
2022/02/26 13:09:04;;;;;;;;;;;17.10;64.80;;;;;;5056470;28;19908;-69
2022/02/26 13:11:30;;;;;;;;;;;16.90;64.70;;;;;;5037008;28;20011;-68
2022/02/26 13:14:06;;;;;;;;;;;16.30;64.10;;;;;;5037867;28;19944;-67
2022/02/26 13:16:32;;;;;;;;;;;16.10;65.70;;;;;;5037403;28;19912;-66
2022/02/26 13:18:57;;;;;;;;;;;15.70;65.90;;;;;;5039292;28;19912;-66
2022/02/26 13:21:23;;;;;;;;;;;14.60;66.60;;;;;;5056632;28;19939;-66
2022/02/26 13:23:51;;;;;;;;;;;15.60;67.90;;;;;;5038018;28;20285;-68
2022/02/26 13:26:26;;;;;;;;;;;15.70;66.10;;;;;;5055846;28;19912;-66
2022/02/26 13:28:55;;;;;;;;;;;16.30;65.20;;;;;;5056644;28;19909;-66
2022/02/26 13:31:30;;;;;;;;;;;16.60;65.40;;;;;;5056068;28;19905;-67
2022/02/26 13:34:15;;;;;;;;;;;17.30;64.20;;;;;;5055515;28;19905;-69
2022/02/26 13:36:45;;;;;;;;;;;17.70;63.40;;;;;;5036778;28;19936;-67
2022/02/26 13:39:11;;;;;;;;;;;17.60;63.30;;;;;;5055514;28;19904;-68
2022/02/26 13:41:38;;;;;;;;;;;18.00;63.00;;;;;;5036910;28;19946;-67
2022/02/26 13:44:08;;;;;;;;;;;17.80;62.00;;;;;;5055504;28;19909;-67
2022/02/26 13:46:37;;;;;;;;;;;17.90;62.60;;;;;;5055660;28;19909;-69
2022/02/26 13:49:03;;;;;;;;;;;18.00;61.80;;;;;;5058018;28;19912;-69
2022/02/26 13:51:34;;;;;;;;;;;17.90;61.70;;;;;;5057666;28;19943;-69
2022/02/26 13:54:00;;;;;;;;;;;17.30;61.80;;;;;;5040421;28;19909;-67
2022/02/26 13:56:27;;;;;;;;;;;16.90;62.90;;;;;;5057616;28;19905;-68
2022/02/26 13:58:53;;;;;;;;;;;16.40;63.00;;;;;;5039936;28;19908;-68
2022/02/26 14:01:19;;;;;;;;;;;16.00;64.10;;;;;;5039218;28;19912;-67
2022/02/26 14:03:45;;;;;;;;;;;15.50;65.70;;;;;;5056839;28;20000;-68
2022/02/26 14:06:10;;;;;;;;;;;15.30;65.20;;;;;;5057450;28;20330;-69
2022/02/26 14:08:38;;;;;;;;;;;15.40;66.30;;;;;;5037429;28;19935;-68
2022/02/26 14:11:05;;;;;;;;;;;15.40;66.20;;;;;;5038103;28;19908;-66
2022/02/26 14:13:33;;;;;;;;;;;15.90;64.80;;;;;;5036908;28;19975;-66
2022/02/26 14:16:03;;;;;;;;;;;15.60;64.20;;;;;;5053723;28;19966;-66
2022/02/26 14:18:33;;;;;;;;;;;16.10;65.40;;;;;;5053294;28;19911;-68
2022/02/26 14:21:00;;;;;;;;;;;15.70;65.20;;;;;;5043240;28;19970;-67
2022/02/26 14:23:25;;;;;;;;;;;15.30;65.30;;;;;;5035647;28;19909;-69
2022/02/26 14:25:51;;;;;;;;;;;15.70;65.50;;;;;;5045404;28;19917;-65